createdAt,value
2023-04-30T00:02:37.079Z,74.60
2023-04-30T00:05:43.769Z,74.87
2023-04-30T00:08:49.348Z,74.41
2023-04-30T00:11:56.043Z,74.19
2023-04-30T00:15:01.777Z,75.74
2023-04-30T00:18:11.271Z,75.18
2023-04-30T00:21:17.002Z,75.09
2023-04-30T00:24:23.297Z,74.51
2023-04-30T00:27:28.817Z,74.77
2023-04-30T00:30:35.485Z,74.22
2023-04-30T00:33:43.783Z,74.23
2023-04-30T00:36:50.821Z,74.14
2023-04-30T00:39:56.699Z,73.96
2023-04-30T00:43:03.498Z,73.98
2023-04-30T00:46:09.253Z,74.16
2023-04-30T00:49:18.598Z,74.14
2023-04-30T00:52:24.241Z,74.80
2023-04-30T00:55:30.747Z,75.16
2023-04-30T00:58:37.011Z,75.26
2023-04-30T01:01:44.661Z,75.34
2023-04-30T01:04:55.312Z,75.96
2023-04-30T01:08:01.755Z,75.38
2023-04-30T01:11:25.624Z,76.27
2023-04-30T01:14:43.170Z,75.37
2023-04-30T01:18:00.291Z,76.22
2023-04-30T01:21:11.024Z,75.68
2023-04-30T01:24:53.225Z,76.19
2023-04-30T01:28:09.356Z,75.32
2023-04-30T01:31:21.216Z,75.75
2023-04-30T01:34:27.716Z,75.90
2023-04-30T01:37:54.740Z,75.19
2023-04-30T01:41:25.942Z,74.40
2023-04-30T01:44:57.928Z,73.80
2023-04-30T01:48:23.013Z,75.11
2023-04-30T01:51:42.725Z,74.66
2023-04-30T01:54:59.554Z,74.39
2023-04-30T01:58:12.428Z,74.64
2023-04-30T02:01:34.440Z,75.22
2023-04-30T02:04:40.192Z,75.42
2023-04-30T02:07:52.317Z,74.97
2023-04-30T02:10:57.780Z,74.80
2023-04-30T02:14:04.159Z,75.10
2023-04-30T02:17:13.322Z,75.71
2023-04-30T02:20:19.761Z,75.51
2023-04-30T02:23:25.279Z,75.16
2023-04-30T02:26:31.661Z,75.14
2023-04-30T02:29:37.468Z,74.73
2023-04-30T02:32:46.743Z,74.67
2023-04-30T02:35:52.963Z,73.36
2023-04-30T02:38:59.511Z,74.03
2023-04-30T02:42:07.020Z,72.45
2023-04-30T02:45:13.666Z,72.63
2023-04-30T02:48:21.956Z,72.19
2023-04-30T02:51:28.516Z,71.66
2023-04-30T02:54:34.033Z,72.39
2023-04-30T02:57:40.596Z,71.34
2023-04-30T03:00:46.236Z,72.51
2023-04-30T03:03:55.717Z,71.71
2023-04-30T03:07:01.214Z,72.00
2023-04-30T03:10:08.669Z,71.28
2023-04-30T03:13:14.125Z,70.86
2023-04-30T03:16:22.414Z,71.12
2023-04-30T03:19:30.684Z,70.89
2023-04-30T03:22:37.044Z,70.46
2023-04-30T03:25:42.753Z,70.92
2023-04-30T03:28:49.690Z,70.80
2023-04-30T03:31:55.245Z,70.36
2023-04-30T03:35:04.385Z,69.95
2023-04-30T03:38:09.820Z,69.99
2023-04-30T03:41:16.254Z,69.63
2023-04-30T03:44:21.981Z,69.60
2023-04-30T03:47:28.712Z,69.64
2023-04-30T03:50:37.110Z,69.20
2023-04-30T03:53:43.448Z,69.21
2023-04-30T03:56:49.275Z,69.03
2023-04-30T03:59:55.958Z,69.00
2023-04-30T04:03:02.724Z,68.92
2023-04-30T04:06:12.071Z,68.89
2023-04-30T04:09:17.510Z,68.94
2023-04-30T04:12:23.961Z,68.28
2023-04-30T04:15:29.666Z,68.08
2023-04-30T04:18:36.830Z,68.06
2023-04-30T04:21:45.231Z,67.81
2023-04-30T04:24:55.491Z,67.94
2023-04-30T04:28:02.494Z,67.77
2023-04-30T04:31:09.130Z,67.30
2023-04-30T04:34:16.086Z,66.73
2023-04-30T04:37:25.224Z,66.40
2023-04-30T04:40:31.803Z,66.53
2023-04-30T04:43:38.696Z,66.20
2023-04-30T04:46:44.824Z,66.57
2023-04-30T04:49:51.566Z,66.86
2023-04-30T04:52:59.792Z,66.68
2023-04-30T04:56:06.528Z,66.17
2023-04-30T04:59:12.081Z,66.29
2023-04-30T05:02:18.484Z,66.10
2023-04-30T05:05:24.063Z,66.41
2023-04-30T05:08:33.413Z,65.91
2023-04-30T05:11:41.809Z,65.13
2023-04-30T05:14:49.725Z,65.24
2023-04-30T05:17:56.376Z,64.61
2023-04-30T05:21:08.422Z,64.93
2023-04-30T05:24:16.655Z,63.88
2023-04-30T05:27:23.002Z,63.97
2023-04-30T05:30:28.645Z,64.43
2023-04-30T05:33:37.259Z,64.23
2023-04-30T05:36:44.265Z,64.21
2023-04-30T05:39:54.222Z,63.31
2023-04-30T05:42:59.884Z,63.41
2023-04-30T05:46:06.724Z,63.45
2023-04-30T05:49:12.627Z,64.10
2023-04-30T05:52:19.229Z,64.07
2023-04-30T05:55:27.462Z,64.22
2023-04-30T05:58:33.860Z,63.31
2023-04-30T06:01:39.395Z,63.32
2023-04-30T06:04:46.575Z,63.34
2023-04-30T06:07:52.081Z,63.31
2023-04-30T06:11:01.509Z,62.79
2023-04-30T06:14:08.137Z,62.28
2023-04-30T06:17:14.534Z,61.85
2023-04-30T06:20:20.086Z,61.65
2023-04-30T06:23:26.532Z,61.50
2023-04-30T06:26:37.774Z,61.21
2023-04-30T06:29:45.305Z,61.06
2023-04-30T06:32:50.858Z,60.78
2023-04-30T06:35:57.710Z,59.12
2023-04-30T06:39:03.548Z,58.92
2023-04-30T06:42:12.672Z,59.19
2023-04-30T06:45:20.992Z,58.01
2023-04-30T06:48:27.441Z,58.81
2023-04-30T06:51:32.945Z,58.84
2023-04-30T06:54:39.473Z,58.30
2023-04-30T06:57:48.041Z,58.23
2023-04-30T07:00:54.458Z,57.37
2023-04-30T07:04:00.451Z,58.02
2023-04-30T07:07:06.983Z,58.12
2023-04-30T07:10:13.090Z,59.08
2023-04-30T07:13:22.182Z,58.45
2023-04-30T07:16:29.646Z,58.13
2023-04-30T07:19:36.040Z,57.83
2023-04-30T07:22:41.503Z,56.71
2023-04-30T07:25:47.863Z,57.60
2023-04-30T07:28:56.149Z,56.45
2023-04-30T07:32:03.455Z,55.81
2023-04-30T07:35:09.613Z,55.45
2023-04-30T07:38:17.676Z,54.65
2023-04-30T07:41:23.154Z,54.40
2023-04-30T07:44:32.482Z,54.73
2023-04-30T07:47:38.089Z,52.97
2023-04-30T07:50:44.544Z,54.22
2023-04-30T07:53:50.002Z,52.94
2023-04-30T07:56:56.665Z,52.79
2023-04-30T08:00:05.019Z,51.14
2023-04-30T08:03:20.334Z,51.21
2023-04-30T08:06:25.942Z,50.45
2023-04-30T08:09:33.067Z,50.61
2023-04-30T08:12:40.154Z,49.51
2023-04-30T08:15:49.232Z,49.02
2023-04-30T08:18:54.774Z,49.71
2023-04-30T08:22:02.195Z,49.52
2023-04-30T08:25:08.618Z,50.09
2023-04-30T08:28:14.975Z,49.04
2023-04-30T08:31:23.652Z,48.29
2023-04-30T08:34:29.969Z,48.15
2023-04-30T08:37:35.490Z,46.87
2023-04-30T08:40:51.390Z,46.70
2023-04-30T08:43:59.355Z,46.69
2023-04-30T08:47:13.520Z,48.34
2023-04-30T08:50:19.146Z,47.83
2023-04-30T08:53:25.769Z,47.37
2023-04-30T08:56:31.755Z,46.11
2023-04-30T08:59:38.257Z,47.20
2023-04-30T09:02:47.411Z,45.94
2023-04-30T09:05:54.073Z,46.57
2023-04-30T09:08:59.794Z,46.08
2023-04-30T09:12:19.308Z,46.51
2023-04-30T09:15:25.167Z,45.59
2023-04-30T09:18:42.620Z,45.14
2023-04-30T09:21:48.098Z,44.64
2023-04-30T09:24:55.381Z,44.64
2023-04-30T09:28:12.422Z,44.50
2023-04-30T09:31:24.988Z,45.24
2023-04-30T09:34:38.186Z,43.18
2023-04-30T09:37:44.653Z,44.72
2023-04-30T09:40:50.456Z,44.79
2023-04-30T09:44:05.574Z,44.32
2023-04-30T09:47:16.054Z,44.52
2023-04-30T09:50:22.229Z,43.32
2023-04-30T09:53:29.512Z,42.21
2023-04-30T09:56:41.373Z,41.77
2023-04-30T09:59:52.651Z,43.11
2023-04-30T10:03:00.775Z,43.81
2023-04-30T10:06:07.929Z,43.87
2023-04-30T10:09:16.319Z,42.54
2023-04-30T10:12:29.570Z,42.42
2023-04-30T10:15:47.963Z,42.93
2023-04-30T10:18:57.758Z,43.17
2023-04-30T10:22:04.993Z,41.94
2023-04-30T10:25:13.815Z,39.98
2023-04-30T10:28:20.059Z,40.74
2023-04-30T10:31:30.973Z,41.03
2023-04-30T10:34:56.186Z,40.88
2023-04-30T10:38:16.896Z,41.96
2023-04-30T10:41:24.122Z,42.21
2023-04-30T10:44:30.899Z,42.01
2023-04-30T10:47:40.368Z,40.78
2023-04-30T10:50:49.157Z,41.77
2023-04-30T10:53:58.901Z,42.09
2023-04-30T10:57:17.924Z,40.81
2023-04-30T11:00:31.020Z,41.80
2023-04-30T11:03:43.529Z,41.51
2023-04-30T11:07:11.225Z,41.13
2023-04-30T11:10:19.191Z,41.27
2023-04-30T11:13:24.739Z,41.58
2023-04-30T11:16:33.840Z,41.75
2023-04-30T11:19:51.463Z,41.83
2023-04-30T11:23:25.310Z,40.05
2023-04-30T11:27:07.016Z,40.41
2023-04-30T11:30:17.636Z,40.92
2023-04-30T11:33:24.495Z,40.98
2023-04-30T11:36:35.324Z,40.35
2023-04-30T11:39:43.348Z,40.04
2023-04-30T11:42:51.064Z,39.99
2023-04-30T11:46:10.387Z,39.90
2023-04-30T11:49:16.947Z,40.06
2023-04-30T11:52:29.028Z,39.84
2023-04-30T11:55:35.757Z,38.68
2023-04-30T11:58:42.187Z,38.21
2023-04-30T12:01:49.108Z,37.86
2023-04-30T12:04:54.914Z,38.04
2023-04-30T12:08:08.250Z,38.49
2023-04-30T12:11:27.247Z,38.38
2023-04-30T12:14:36.575Z,37.96
2023-04-30T12:17:42.106Z,37.37
2023-04-30T12:20:48.793Z,36.66
2023-04-30T12:23:57.211Z,36.71
2023-04-30T12:27:03.893Z,37.01
2023-04-30T12:30:13.520Z,37.08
2023-04-30T12:33:22.127Z,37.31
2023-04-30T12:36:36.945Z,39.26
2023-04-30T12:39:47.687Z,38.41
2023-04-30T12:42:53.193Z,38.44
2023-04-30T12:45:59.948Z,39.18
2023-04-30T12:49:05.699Z,39.32
2023-04-30T12:52:15.740Z,38.61
2023-04-30T12:55:27.318Z,37.30
2023-04-30T12:58:35.359Z,36.71
2023-04-30T13:01:48.736Z,37.26
2023-04-30T13:04:57.178Z,37.30
2023-04-30T13:08:06.626Z,36.90
2023-04-30T13:11:15.748Z,36.90
2023-04-30T13:14:21.232Z,37.31
2023-04-30T13:17:27.644Z,37.44
2023-04-30T13:20:33.430Z,37.97
2023-04-30T13:23:51.170Z,37.13
2023-04-30T13:27:01.046Z,37.43
2023-04-30T13:30:08.664Z,36.88
2023-04-30T13:33:14.105Z,36.40
2023-04-30T13:36:21.199Z,36.61
2023-04-30T13:39:26.860Z,36.65
2023-04-30T13:42:36.623Z,36.98
2023-04-30T13:45:42.412Z,37.72
2023-04-30T13:48:50.324Z,37.61
2023-04-30T13:51:55.850Z,37.38
2023-04-30T13:55:02.577Z,36.67
2023-04-30T13:58:10.913Z,35.43
2023-04-30T14:01:17.551Z,36.73
2023-04-30T14:04:23.143Z,36.50
2023-04-30T14:07:29.936Z,36.67
2023-04-30T14:10:35.977Z,36.25
2023-04-30T14:13:45.034Z,36.01
2023-04-30T14:16:50.879Z,36.43
2023-04-30T14:19:57.721Z,36.20
2023-04-30T14:23:04.155Z,36.23
2023-04-30T14:26:10.704Z,36.37
2023-04-30T14:29:21.684Z,35.67
2023-04-30T14:32:30.096Z,36.26
2023-04-30T14:35:36.638Z,36.18
2023-04-30T14:38:42.950Z,35.86
2023-04-30T14:41:48.482Z,35.45
2023-04-30T14:45:00.586Z,35.21
2023-04-30T14:48:06.758Z,35.15
2023-04-30T14:51:13.162Z,35.02
2023-04-30T14:54:18.877Z,35.15
2023-04-30T14:57:25.672Z,35.28
2023-04-30T15:00:34.554Z,36.26
2023-04-30T15:03:41.133Z,36.14
2023-04-30T15:06:47.320Z,36.18
2023-04-30T15:09:53.835Z,35.87
2023-04-30T15:12:59.488Z,35.58
2023-04-30T15:16:10.243Z,35.19
2023-04-30T15:19:16.145Z,34.63
2023-04-30T15:22:22.825Z,35.09
2023-04-30T15:25:28.894Z,34.96
2023-04-30T15:28:36.304Z,35.05
2023-04-30T15:31:44.686Z,33.45
2023-04-30T15:34:51.549Z,33.72
2023-04-30T15:37:57.102Z,32.78
2023-04-30T15:41:03.730Z,32.80
2023-04-30T15:44:09.414Z,31.68
2023-04-30T15:47:18.812Z,30.24
2023-04-30T15:50:24.426Z,30.00
2023-04-30T15:53:30.797Z,29.05
2023-04-30T15:56:37.770Z,28.63
2023-04-30T15:59:44.147Z,27.72
2023-04-30T16:02:52.607Z,27.62
2023-04-30T16:06:00.088Z,27.29
2023-04-30T16:09:08.083Z,27.43
2023-04-30T16:12:14.399Z,27.16
2023-04-30T16:15:20.207Z,26.92
2023-04-30T16:18:30.235Z,25.99
2023-04-30T16:21:38.796Z,26.23
2023-04-30T16:24:45.225Z,26.20
2023-04-30T16:27:50.885Z,25.96
2023-04-30T16:30:57.861Z,25.42
2023-04-30T16:34:06.476Z,25.90
2023-04-30T16:37:13.955Z,24.72
2023-04-30T16:40:21.051Z,25.72
2023-04-30T16:43:29.938Z,25.11
2023-04-30T16:46:35.893Z,26.13
2023-04-30T16:49:45.229Z,25.88
2023-04-30T16:52:50.696Z,26.14
2023-04-30T16:55:57.439Z,26.60
2023-04-30T16:59:03.054Z,26.86
2023-04-30T17:02:10.351Z,27.25
2023-04-30T17:05:19.266Z,27.84
2023-04-30T17:08:26.393Z,28.43
2023-04-30T17:11:31.985Z,29.36
2023-04-30T17:14:38.490Z,30.12
2023-04-30T17:17:44.081Z,30.05
2023-04-30T17:20:54.502Z,30.54
2023-04-30T17:24:00.327Z,30.66
2023-04-30T17:27:06.896Z,31.31
2023-04-30T17:30:13.232Z,31.84
2023-04-30T17:33:20.035Z,31.43
2023-04-30T17:36:28.472Z,31.35
2023-04-30T17:39:35.471Z,31.36
2023-04-30T17:42:41.469Z,31.18
2023-04-30T17:45:47.966Z,31.40
2023-04-30T17:48:53.638Z,31.59
2023-04-30T17:52:02.783Z,31.89
2023-04-30T17:55:12.070Z,32.27
2023-04-30T17:58:18.601Z,32.67
2023-04-30T18:01:25.218Z,33.46
2023-04-30T18:04:31.834Z,33.02
2023-04-30T18:07:40.212Z,33.51
2023-04-30T18:10:47.052Z,34.32
2023-04-30T18:13:52.846Z,34.42
2023-04-30T18:16:59.628Z,34.63
2023-04-30T18:20:05.474Z,34.95
2023-04-30T18:23:16.198Z,35.13
2023-04-30T18:26:24.950Z,34.89
2023-04-30T18:29:31.495Z,34.89
2023-04-30T18:32:37.568Z,35.06
2023-04-30T18:35:46.994Z,34.79
2023-04-30T18:38:55.362Z,35.09
2023-04-30T18:42:02.207Z,35.25
2023-04-30T18:45:10.281Z,35.70
2023-04-30T18:48:19.357Z,35.29
2023-04-30T18:51:25.107Z,35.79
2023-04-30T18:54:34.741Z,35.63
2023-04-30T18:57:42.076Z,35.94
2023-04-30T19:00:49.884Z,36.83
2023-04-30T19:03:55.893Z,35.75
2023-04-30T19:07:04.895Z,37.03
2023-04-30T19:10:14.084Z,37.21
2023-04-30T19:13:20.992Z,37.14
2023-04-30T19:16:30.066Z,36.36
2023-04-30T19:19:39.763Z,37.31
2023-04-30T19:22:50.291Z,36.92
2023-04-30T19:26:00.397Z,37.55
2023-04-30T19:29:06.686Z,37.98
2023-04-30T19:32:13.473Z,37.30
2023-04-30T19:35:19.733Z,38.14
2023-04-30T19:38:26.657Z,37.52
2023-04-30T19:41:35.291Z,37.37
2023-04-30T19:44:44.935Z,37.58
2023-04-30T19:47:51.474Z,37.79
2023-04-30T19:50:58.428Z,38.69
2023-04-30T19:54:04.536Z,38.24
2023-04-30T19:57:14.559Z,37.96
2023-04-30T20:00:20.903Z,38.27
2023-04-30T20:03:28.911Z,38.28
2023-04-30T20:06:35.287Z,38.67
2023-04-30T20:09:42.355Z,38.88
2023-04-30T20:12:54.350Z,38.67
2023-04-30T20:16:01.580Z,39.88
2023-04-30T20:19:07.525Z,39.84
2023-04-30T20:22:14.568Z,39.91
2023-04-30T20:25:20.394Z,39.26
2023-04-30T20:28:31.044Z,39.84
2023-04-30T20:31:37.983Z,39.91
2023-04-30T20:34:44.736Z,40.21
2023-04-30T20:37:55.341Z,40.12
2023-04-30T20:41:02.534Z,40.20
2023-04-30T20:44:11.804Z,40.24
2023-04-30T20:47:18.312Z,40.52
2023-04-30T20:50:24.648Z,40.00
2023-04-30T20:53:31.265Z,39.98
2023-04-30T20:56:37.130Z,40.25
2023-04-30T20:59:46.592Z,40.14
2023-04-30T21:02:52.984Z,40.97
2023-04-30T21:05:59.704Z,40.05
2023-04-30T21:09:06.587Z,40.02
2023-04-30T21:12:13.365Z,40.67
2023-04-30T21:15:22.699Z,40.73
2023-04-30T21:18:29.531Z,40.78
2023-04-30T21:21:35.110Z,40.47
2023-04-30T21:24:42.444Z,40.06
2023-04-30T21:27:48.971Z,40.60
2023-04-30T21:30:58.495Z,40.30
2023-04-30T21:34:04.162Z,40.81
2023-04-30T21:37:10.607Z,40.66
2023-04-30T21:40:16.683Z,40.57
2023-04-30T21:43:23.117Z,40.92
2023-04-30T21:46:31.429Z,40.99
2023-04-30T21:49:38.164Z,40.96
2023-04-30T21:52:43.848Z,40.78
2023-04-30T21:55:50.832Z,41.05
2023-04-30T21:58:56.559Z,40.75
2023-04-30T22:02:20.030Z,41.29
2023-04-30T22:05:28.735Z,40.76
2023-04-30T22:08:35.139Z,41.22
2023-04-30T22:11:40.602Z,40.93
2023-04-30T22:14:46.873Z,41.46
2023-04-30T22:17:55.642Z,41.41
2023-04-30T22:21:02.690Z,41.24
2023-04-30T22:24:09.351Z,40.76
2023-04-30T22:27:16.252Z,41.35
2023-04-30T22:30:22.301Z,41.16
2023-04-30T22:33:31.558Z,41.04
2023-04-30T22:36:37.370Z,41.32
2023-04-30T22:39:43.729Z,41.00
2023-04-30T22:42:50.270Z,40.62
2023-04-30T22:45:57.976Z,41.02
2023-04-30T22:49:06.779Z,41.14
2023-04-30T22:52:14.196Z,41.04
2023-04-30T22:55:20.021Z,40.98
2023-04-30T22:58:26.414Z,41.25
2023-04-30T23:01:31.966Z,41.12
2023-04-30T23:04:41.105Z,41.14
2023-04-30T23:07:49.025Z,41.00
2023-04-30T23:10:56.259Z,41.20
2023-04-30T23:14:01.802Z,41.43
2023-04-30T23:17:08.317Z,41.10
2023-04-30T23:20:17.022Z,41.53
2023-04-30T23:23:23.806Z,41.60
2023-04-30T23:26:29.305Z,41.67
2023-04-30T23:29:36.463Z,41.89
2023-04-30T23:32:42.354Z,41.94
2023-04-30T23:35:51.681Z,42.09
2023-04-30T23:38:57.354Z,42.02
2023-04-30T23:42:04.028Z,41.80
2023-04-30T23:45:11.428Z,42.27
2023-04-30T23:48:18.088Z,42.19
2023-04-30T23:51:26.543Z,42.41
2023-04-30T23:54:33.244Z,42.33
2023-04-30T23:57:38.805Z,42.79
